createdAt,value
2023-03-18T00:01:22.921Z,13.90
2023-03-18T00:03:25.477Z,13.23
2023-03-18T00:05:28.659Z,15.73
2023-03-18T00:07:31.554Z,13.73
2023-03-18T00:09:34.152Z,18.27
2023-03-18T00:11:37.566Z,17.35
2023-03-18T00:13:41.481Z,15.38
2023-03-18T00:15:45.419Z,16.73
2023-03-18T00:17:48.939Z,12.70
2023-03-18T00:19:51.497Z,13.68
2023-03-18T00:21:54.171Z,10.38
2023-03-18T00:23:56.909Z,9.40
2023-03-18T00:26:01.338Z,9.45
2023-03-18T00:28:04.451Z,11.35
2023-03-18T00:30:08.921Z,16.35
2023-03-18T00:32:12.847Z,14.18
2023-03-18T00:34:16.015Z,10.20
2023-03-18T00:36:25.498Z,11.93
2023-03-18T00:38:29.529Z,14.27
2023-03-18T00:40:43.261Z,16.33
2023-03-18T00:42:50.436Z,16.08
2023-03-18T00:44:53.470Z,12.13
2023-03-18T00:46:56.047Z,13.43
2023-03-18T00:49:02.081Z,12.43
2023-03-18T00:51:04.967Z,12.70
2023-03-18T00:53:07.512Z,11.27
2023-03-18T00:55:11.051Z,13.65
2023-03-18T00:57:13.651Z,13.65
2023-03-18T00:59:16.387Z,15.00
2023-03-18T01:01:19.725Z,16.13
2023-03-18T01:03:25.804Z,12.02
2023-03-18T01:05:30.353Z,14.88
2023-03-18T01:07:33.035Z,10.65
2023-03-18T01:09:35.790Z,9.43
2023-03-18T01:11:38.430Z,8.07
2023-03-18T01:13:41.443Z,11.38
2023-03-18T01:15:44.068Z,8.15
2023-03-18T01:17:47.074Z,15.85
2023-03-18T01:19:49.878Z,10.85
2023-03-18T01:21:53.868Z,7.95
2023-03-18T01:23:56.595Z,19.23
2023-03-18T01:25:59.988Z,10.93
2023-03-18T01:28:02.564Z,8.65
2023-03-18T01:30:06.885Z,16.73
2023-03-18T01:32:09.760Z,9.93
2023-03-18T01:34:12.361Z,8.70
2023-03-18T01:36:15.571Z,9.32
2023-03-18T01:38:19.553Z,10.90
2023-03-18T01:40:22.675Z,9.77
2023-03-18T01:42:25.502Z,9.10
2023-03-18T01:44:28.462Z,8.70
2023-03-18T01:46:37.839Z,11.32
2023-03-18T01:48:40.743Z,7.35
2023-03-18T01:50:45.233Z,10.10
2023-03-18T01:52:50.050Z,7.30
2023-03-18T01:54:59.583Z,9.07
2023-03-18T01:57:03.637Z,10.20
2023-03-18T01:59:08.940Z,13.50
2023-03-18T02:01:19.140Z,9.57
2023-03-18T02:03:22.695Z,8.57
2023-03-18T02:05:28.474Z,7.63
2023-03-18T02:07:34.719Z,10.88
2023-03-18T02:09:37.701Z,8.40
2023-03-18T02:11:44.740Z,7.40
2023-03-18T02:13:48.199Z,10.07
2023-03-18T02:15:55.088Z,7.40
2023-03-18T02:18:01.657Z,11.88
2023-03-18T02:20:16.069Z,6.65
2023-03-18T02:22:26.984Z,13.38
2023-03-18T02:24:37.876Z,10.25
2023-03-18T02:26:50.033Z,7.65
2023-03-18T02:28:58.132Z,11.07
2023-03-18T02:31:05.175Z,9.52
2023-03-18T02:33:08.967Z,8.50
2023-03-18T02:35:12.869Z,7.53
2023-03-18T02:37:15.487Z,7.78
2023-03-18T02:39:18.165Z,8.90
2023-03-18T02:41:22.942Z,9.18
2023-03-18T02:43:28.625Z,7.63
2023-03-18T02:45:41.699Z,9.55
2023-03-18T02:47:47.831Z,8.07
2023-03-18T02:49:50.733Z,9.95
2023-03-18T02:51:53.927Z,8.88
2023-03-18T02:54:01.701Z,7.25
2023-03-18T02:56:04.553Z,6.82
2023-03-18T02:58:07.858Z,5.47
2023-03-18T03:00:11.813Z,12.18
2023-03-18T03:02:15.800Z,8.98
2023-03-18T03:04:19.592Z,9.98
2023-03-18T03:06:22.213Z,6.68
2023-03-18T03:08:25.482Z,8.40
2023-03-18T03:10:28.055Z,6.53
2023-03-18T03:12:30.714Z,6.82
2023-03-18T03:14:33.293Z,5.38
2023-03-18T03:16:36.911Z,8.68
2023-03-18T03:18:42.064Z,7.53
2023-03-18T03:20:45.619Z,5.70
2023-03-18T03:22:48.383Z,11.20
2023-03-18T03:24:50.968Z,6.57
2023-03-18T03:26:54.039Z,8.35
2023-03-18T03:28:56.804Z,7.18
2023-03-18T03:30:59.149Z,10.63
2023-03-18T03:33:02.725Z,6.05
2023-03-18T03:35:08.597Z,6.85
2023-03-18T03:37:11.876Z,9.75
2023-03-18T03:39:14.744Z,6.35
2023-03-18T03:41:17.411Z,7.15
2023-03-18T03:43:19.984Z,6.07
2023-03-18T03:45:23.050Z,6.35
2023-03-18T03:47:25.889Z,5.53
2023-03-18T03:49:28.503Z,7.82
2023-03-18T03:51:32.416Z,7.20
2023-03-18T03:53:35.994Z,6.43
2023-03-18T03:55:39.239Z,6.18
2023-03-18T03:57:41.943Z,6.07
2023-03-18T03:59:44.596Z,6.82
2023-03-18T04:01:47.303Z,6.13
2023-03-18T04:03:50.136Z,7.28
2023-03-18T04:05:52.753Z,5.65
2023-03-18T04:07:59.893Z,11.25
2023-03-18T04:10:02.769Z,6.82
2023-03-18T04:12:06.552Z,10.00
2023-03-18T04:14:09.148Z,10.52
2023-03-18T04:16:11.770Z,6.85
2023-03-18T04:18:14.823Z,7.72
2023-03-18T04:20:18.293Z,7.90
2023-03-18T04:22:21.502Z,8.63
2023-03-18T04:24:26.156Z,6.07
2023-03-18T04:26:29.114Z,8.43
2023-03-18T04:28:31.886Z,11.35
2023-03-18T04:30:34.572Z,9.07
2023-03-18T04:32:37.441Z,12.27
2023-03-18T04:34:40.347Z,8.85
2023-03-18T04:36:42.901Z,9.50
2023-03-18T04:38:45.625Z,8.55
2023-03-18T04:40:49.522Z,6.88
2023-03-18T04:42:52.367Z,11.00
2023-03-18T04:44:54.935Z,12.15
2023-03-18T04:46:57.597Z,10.10
2023-03-18T04:49:00.303Z,6.25
2023-03-18T04:51:02.889Z,8.80
2023-03-18T04:53:06.448Z,11.15
2023-03-18T04:55:10.633Z,13.07
2023-03-18T04:57:17.047Z,11.35
2023-03-18T04:59:19.690Z,18.15
2023-03-18T05:01:22.296Z,10.80
2023-03-18T05:03:25.282Z,10.43
2023-03-18T05:05:27.903Z,12.23
2023-03-18T05:07:30.623Z,14.20
2023-03-18T05:09:34.200Z,14.38
2023-03-18T05:11:37.092Z,17.40
2023-03-18T05:13:41.002Z,10.50
2023-03-18T05:15:43.543Z,9.18
2023-03-18T05:17:46.392Z,11.90
2023-03-18T05:19:49.949Z,13.68
2023-03-18T05:21:52.620Z,14.45
2023-03-18T05:23:55.219Z,13.20
2023-03-18T05:25:58.221Z,15.35
2023-03-18T05:28:01.150Z,13.35
2023-03-18T05:30:05.904Z,13.50
2023-03-18T05:32:09.598Z,8.85
2023-03-18T05:34:13.481Z,10.23
2023-03-18T05:36:16.036Z,12.23
2023-03-18T05:38:18.625Z,11.20
2023-03-18T05:40:21.536Z,12.55
2023-03-18T05:42:24.275Z,13.88
2023-03-18T05:44:26.949Z,11.82
2023-03-18T05:46:31.002Z,12.32
2023-03-18T05:48:34.141Z,17.00
2023-03-18T05:50:39.536Z,5.93
2023-03-18T05:52:42.887Z,10.35
2023-03-18T05:54:45.506Z,13.10
2023-03-18T05:56:48.095Z,11.10
2023-03-18T05:58:51.151Z,14.35
2023-03-18T06:00:53.729Z,12.43
2023-03-18T06:02:59.307Z,8.20
2023-03-18T06:05:02.500Z,9.65
2023-03-18T06:07:06.117Z,11.35
2023-03-18T06:09:09.195Z,17.90
2023-03-18T06:11:12.172Z,9.45
2023-03-18T06:13:15.225Z,9.50
2023-03-18T06:15:18.769Z,11.75
2023-03-18T06:17:21.620Z,10.43
2023-03-18T06:19:25.957Z,14.52
2023-03-18T06:21:28.595Z,12.50
2023-03-18T06:23:31.716Z,12.85
2023-03-18T06:25:34.811Z,12.00
2023-03-18T06:27:37.607Z,19.10
2023-03-18T06:29:41.057Z,11.40
2023-03-18T06:31:43.624Z,10.88
2023-03-18T06:33:46.598Z,10.70
2023-03-18T06:35:51.125Z,9.90
2023-03-18T06:37:54.215Z,11.30
2023-03-18T06:39:56.780Z,13.93
2023-03-18T06:41:59.359Z,15.05
2023-03-18T06:44:01.915Z,9.82
2023-03-18T06:46:05.306Z,10.98
2023-03-18T06:48:08.386Z,10.77
2023-03-18T06:50:13.525Z,10.23
2023-03-18T06:52:18.115Z,13.27
2023-03-18T06:54:21.144Z,12.23
2023-03-18T06:56:23.892Z,11.20
2023-03-18T06:58:27.158Z,12.13
2023-03-18T07:00:29.789Z,12.70
2023-03-18T07:02:32.394Z,12.32
2023-03-18T07:04:35.481Z,11.48
2023-03-18T07:06:38.164Z,13.60
2023-03-18T07:08:42.062Z,11.48
2023-03-18T07:10:44.710Z,11.65
2023-03-18T07:12:47.926Z,11.30
2023-03-18T07:14:50.515Z,12.32
2023-03-18T07:16:53.115Z,11.32
2023-03-18T07:18:58.217Z,7.47
2023-03-18T07:21:01.369Z,11.88
2023-03-18T07:23:05.265Z,9.18
2023-03-18T07:25:10.493Z,11.43
2023-03-18T07:27:14.501Z,10.25
2023-03-18T07:29:17.498Z,9.35
2023-03-18T07:31:20.094Z,5.97
2023-03-18T07:33:22.651Z,7.10
2023-03-18T07:35:25.231Z,10.52
2023-03-18T07:37:28.734Z,5.88
2023-03-18T07:39:31.866Z,6.18
2023-03-18T07:41:37.807Z,7.05
2023-03-18T07:43:40.948Z,7.82
2023-03-18T07:45:43.520Z,7.90
2023-03-18T07:47:47.318Z,6.13
2023-03-18T07:49:50.141Z,7.10
2023-03-18T07:51:53.114Z,4.15
2023-03-18T07:53:55.690Z,9.38
2023-03-18T07:55:58.390Z,9.20
2023-03-18T07:58:04.346Z,7.25
2023-03-18T08:00:08.885Z,8.13
2023-03-18T08:02:16.756Z,7.00
2023-03-18T08:04:19.508Z,8.50
2023-03-18T08:06:22.688Z,3.55
2023-03-18T08:08:25.249Z,5.47
2023-03-18T08:10:28.906Z,4.95
2023-03-18T08:12:45.262Z,5.38
2023-03-18T08:14:55.284Z,7.30
2023-03-18T08:16:58.018Z,9.45
2023-03-18T08:19:00.658Z,8.25
2023-03-18T08:21:03.227Z,9.98
2023-03-18T08:23:05.834Z,7.95
2023-03-18T08:25:09.343Z,6.78
2023-03-18T08:27:12.162Z,8.57
2023-03-18T08:29:14.795Z,10.05
2023-03-18T08:31:18.776Z,4.65
2023-03-18T08:33:21.360Z,5.72
2023-03-18T08:35:23.944Z,6.65
2023-03-18T08:37:26.552Z,7.65
2023-03-18T08:39:29.110Z,5.70
2023-03-18T08:41:32.439Z,10.50
2023-03-18T08:43:36.381Z,10.38
2023-03-18T08:45:40.530Z,6.90
2023-03-18T08:47:44.473Z,4.10
2023-03-18T08:49:47.134Z,7.10
2023-03-18T08:51:49.701Z,3.80
2023-03-18T08:53:52.467Z,5.97
2023-03-18T08:55:55.037Z,6.28
2023-03-18T08:57:57.906Z,7.20
2023-03-18T09:00:00.513Z,4.72
2023-03-18T09:02:03.422Z,4.45
2023-03-18T09:04:07.391Z,6.25
2023-03-18T09:06:10.025Z,6.00
2023-03-18T09:08:13.579Z,5.18
2023-03-18T09:10:17.750Z,7.38
2023-03-18T09:12:20.352Z,9.52
2023-03-18T09:14:23.556Z,4.88
2023-03-18T09:16:26.274Z,4.18
2023-03-18T09:18:29.504Z,1.75
2023-03-18T09:20:33.765Z,3.72
2023-03-18T09:22:36.876Z,3.65
2023-03-18T09:24:39.482Z,3.63
2023-03-18T09:26:42.237Z,4.10
2023-03-18T09:28:44.828Z,4.90
2023-03-18T09:30:47.619Z,8.35
2023-03-18T09:32:50.580Z,3.92
2023-03-18T09:34:55.763Z,3.50
2023-03-18T09:36:59.671Z,3.97
2023-03-18T09:39:02.232Z,6.63
2023-03-18T09:41:13.753Z,7.88
2023-03-18T09:43:32.232Z,3.88
2023-03-18T09:45:41.127Z,5.25
2023-03-18T09:47:57.338Z,6.55
2023-03-18T09:50:11.513Z,8.15
2023-03-18T09:52:27.165Z,6.45
2023-03-18T09:54:36.477Z,4.35
2023-03-18T09:56:40.135Z,4.80
2023-03-18T09:58:50.849Z,3.17
2023-03-18T10:00:58.015Z,4.70
2023-03-18T10:03:06.499Z,5.63
2023-03-18T10:05:15.909Z,3.90
2023-03-18T10:07:23.704Z,8.98
2023-03-18T10:09:31.911Z,7.82
2023-03-18T10:11:38.460Z,6.88
2023-03-18T10:13:48.194Z,4.75
2023-03-18T10:15:56.617Z,3.80
2023-03-18T10:18:06.055Z,4.30
2023-03-18T10:20:17.787Z,5.20
2023-03-18T10:22:47.138Z,5.25
2023-03-18T10:24:59.917Z,7.68
2023-03-18T10:27:10.487Z,5.65
2023-03-18T10:29:37.281Z,4.80
2023-03-18T10:31:52.475Z,5.72
2023-03-18T10:33:59.343Z,4.43
2023-03-18T10:36:08.849Z,5.07
2023-03-18T10:38:20.591Z,7.90
2023-03-18T10:40:25.943Z,3.72
2023-03-18T10:42:31.209Z,3.08
2023-03-18T10:44:36.826Z,5.65
2023-03-18T10:46:39.635Z,5.15
2023-03-18T10:48:46.616Z,2.80
2023-03-18T10:51:07.765Z,5.55
2023-03-18T10:53:18.213Z,4.73
2023-03-18T10:55:27.400Z,4.53
2023-03-18T10:57:30.127Z,3.92
2023-03-18T10:59:33.482Z,5.65
2023-03-18T11:01:38.072Z,2.63
2023-03-18T11:03:45.204Z,4.50
2023-03-18T11:05:48.887Z,4.55
2023-03-18T11:08:00.694Z,6.78
2023-03-18T11:12:23.771Z,5.22
2023-03-18T11:14:30.557Z,7.30
2023-03-18T11:16:38.189Z,4.38
2023-03-18T11:18:47.160Z,6.32
2023-03-18T11:21:00.524Z,3.50
2023-03-18T11:23:13.637Z,7.00
2023-03-18T11:25:18.003Z,5.30
2023-03-18T11:27:27.821Z,4.70
2023-03-18T11:29:33.434Z,4.00
2023-03-18T11:31:50.582Z,4.55
2023-03-18T11:33:58.840Z,4.55
2023-03-18T11:36:07.402Z,3.03
2023-03-18T11:38:16.910Z,3.15
2023-03-18T11:40:28.069Z,5.20
2023-03-18T11:42:33.378Z,4.30
2023-03-18T11:44:35.936Z,4.35
2023-03-18T11:46:42.728Z,5.43
2023-03-18T11:48:45.458Z,2.85
2023-03-18T11:51:20.861Z,6.63
2023-03-18T11:53:31.251Z,3.00
2023-03-18T11:55:43.515Z,6.55
2023-03-18T11:58:22.852Z,9.35
2023-03-18T12:00:33.946Z,1.48
2023-03-18T12:02:54.142Z,4.07
2023-03-18T12:05:10.892Z,4.97
2023-03-18T12:07:41.467Z,4.82
2023-03-18T12:09:50.448Z,2.65
2023-03-18T12:12:06.801Z,6.75
2023-03-18T12:14:19.587Z,5.43
2023-03-18T12:16:40.501Z,4.90
2023-03-18T12:18:58.719Z,3.25
2023-03-18T12:21:05.279Z,2.97
2023-03-18T12:23:23.044Z,5.72
2023-03-18T12:25:41.805Z,3.70
2023-03-18T12:27:56.562Z,3.33
2023-03-18T12:30:09.873Z,3.05
2023-03-18T12:32:25.587Z,3.60
2023-03-18T12:34:43.047Z,1.45
2023-03-18T12:36:58.592Z,5.90
2023-03-18T12:39:15.867Z,2.42
2023-03-18T12:41:21.473Z,2.95
2023-03-18T12:43:45.373Z,7.40
2023-03-18T12:45:54.194Z,4.88
2023-03-18T12:48:02.351Z,2.38
2023-03-18T12:50:08.895Z,5.03
2023-03-18T12:52:20.736Z,3.63
2023-03-18T12:56:31.579Z,2.63
2023-03-18T12:58:39.643Z,2.40
2023-03-18T13:00:47.968Z,3.30
2023-03-18T13:03:09.726Z,2.22
2023-03-18T13:05:25.452Z,3.97
2023-03-18T13:07:38.675Z,3.20
2023-03-18T13:09:45.148Z,3.03
2023-03-18T13:12:05.029Z,2.90
2023-03-18T13:14:18.692Z,2.10
2023-03-18T13:16:25.347Z,3.53
2023-03-18T13:18:37.998Z,6.20
2023-03-18T13:20:42.286Z,3.92
2023-03-18T13:23:01.663Z,6.55
2023-03-18T13:25:19.351Z,2.72
2023-03-18T13:27:41.612Z,2.33
2023-03-18T13:29:51.882Z,2.53
2023-03-18T13:32:01.239Z,2.13
2023-03-18T13:34:26.499Z,2.20
2023-03-18T13:36:51.604Z,4.40
2023-03-18T13:39:05.470Z,2.63
2023-03-18T13:41:25.452Z,3.83
2023-03-18T13:43:29.254Z,2.83
2023-03-18T13:45:33.816Z,1.95
2023-03-18T13:47:39.112Z,4.07
2023-03-18T13:49:44.551Z,3.42
2023-03-18T13:51:54.174Z,4.82
2023-03-18T13:54:00.789Z,1.90
2023-03-18T13:56:05.903Z,4.57
2023-03-18T13:58:24.302Z,2.33
2023-03-18T14:00:31.547Z,3.00
2023-03-18T14:02:45.448Z,5.45
2023-03-18T14:04:50.805Z,1.52
2023-03-18T14:06:55.414Z,3.70
2023-03-18T14:08:58.050Z,2.63
2023-03-18T14:11:50.002Z,2.78
2023-03-18T14:13:54.731Z,2.28
2023-03-18T14:15:58.720Z,3.95
2023-03-18T14:18:01.618Z,2.22
2023-03-18T14:20:21.871Z,3.97
2023-03-18T14:22:29.185Z,1.85
2023-03-18T14:24:32.396Z,4.00
2023-03-18T14:26:34.978Z,3.55
2023-03-18T14:28:45.535Z,7.60
2023-03-18T14:31:13.672Z,4.13
2023-03-18T14:33:34.486Z,4.55
2023-03-18T14:35:50.515Z,3.75
2023-03-18T14:38:03.494Z,3.22
2023-03-18T14:40:14.219Z,4.97
2023-03-18T14:42:29.750Z,8.82
2023-03-18T14:44:40.912Z,3.55
2023-03-18T14:46:46.331Z,4.47
2023-03-18T14:48:53.739Z,4.28
2023-03-18T14:51:00.151Z,6.03
2023-03-18T14:53:12.674Z,4.82
2023-03-18T14:55:20.614Z,4.97
2023-03-18T14:57:23.788Z,4.63
2023-03-18T14:59:27.161Z,5.90
2023-03-18T15:01:36.587Z,4.03
2023-03-18T15:03:41.582Z,7.10
2023-03-18T15:05:46.475Z,4.57
2023-03-18T15:07:54.624Z,3.35
2023-03-18T15:09:57.320Z,2.22
2023-03-18T15:11:59.889Z,5.38
2023-03-18T15:14:02.476Z,2.58
2023-03-18T15:16:05.993Z,6.60
2023-03-18T15:18:18.585Z,4.30
2023-03-18T15:20:22.943Z,3.80
2023-03-18T15:22:30.615Z,5.10
2023-03-18T15:24:35.006Z,4.90
2023-03-18T15:26:42.097Z,4.28
2023-03-18T15:28:47.659Z,4.55
2023-03-18T15:30:55.705Z,4.45
2023-03-18T15:33:07.025Z,3.50
2023-03-18T15:35:16.638Z,8.50
2023-03-18T15:37:33.544Z,4.13
2023-03-18T15:39:39.824Z,8.93
2023-03-18T15:41:42.591Z,3.80
2023-03-18T15:43:47.188Z,3.78
2023-03-18T15:45:55.544Z,3.80
2023-03-18T15:47:59.486Z,5.80
2023-03-18T15:50:10.518Z,6.05
2023-03-18T15:52:17.113Z,3.53
2023-03-18T15:54:28.018Z,6.55
2023-03-18T15:56:35.462Z,4.47
2023-03-18T15:58:39.387Z,6.20
2023-03-18T16:00:42.813Z,2.70
2023-03-18T16:02:45.471Z,4.43
2023-03-18T16:04:48.612Z,6.90
2023-03-18T16:06:52.421Z,4.82
2023-03-18T16:08:55.547Z,12.43
2023-03-18T16:11:01.791Z,14.00
2023-03-18T16:13:05.836Z,13.52
2023-03-18T16:15:15.530Z,9.75
2023-03-18T16:17:22.170Z,6.03
2023-03-18T16:19:27.946Z,7.13
2023-03-18T16:21:30.638Z,10.57
2023-03-18T16:23:33.235Z,6.20
2023-03-18T16:25:36.003Z,7.28
2023-03-18T16:27:44.029Z,5.70
2023-03-18T16:29:48.372Z,12.10
2023-03-18T16:31:51.134Z,12.60
2023-03-18T16:33:56.121Z,14.57
2023-03-18T16:36:01.570Z,10.35
2023-03-18T16:38:04.216Z,8.82
2023-03-18T16:40:18.341Z,18.70
2023-03-18T16:42:21.609Z,12.02
2023-03-18T16:44:24.411Z,8.85
2023-03-18T16:46:28.510Z,9.15
2023-03-18T16:48:31.201Z,10.48
2023-03-18T16:50:35.982Z,8.27
2023-03-18T16:52:38.864Z,9.25
2023-03-18T16:54:41.946Z,11.25
2023-03-18T16:56:45.216Z,7.47
2023-03-18T16:58:47.793Z,7.78
2023-03-18T17:00:51.104Z,7.95
2023-03-18T17:02:55.504Z,8.63
2023-03-18T17:04:58.200Z,8.70
2023-03-18T17:07:03.578Z,12.02
2023-03-18T17:09:06.168Z,20.65
2023-03-18T17:11:11.461Z,18.13
2023-03-18T17:13:19.978Z,12.88
2023-03-18T17:15:28.778Z,16.48
2023-03-18T17:17:35.710Z,15.27
2023-03-18T17:19:40.091Z,13.48
2023-03-18T17:21:42.707Z,18.58
2023-03-18T17:23:45.655Z,12.80
2023-03-18T17:25:51.891Z,14.70
2023-03-18T17:27:57.257Z,18.75
2023-03-18T17:29:59.829Z,15.25
2023-03-18T17:32:02.593Z,15.88
2023-03-18T17:34:13.867Z,14.02
2023-03-18T17:36:18.167Z,14.70
2023-03-18T17:38:21.082Z,18.05
2023-03-18T17:40:27.032Z,22.58
2023-03-18T17:42:32.336Z,18.58
2023-03-18T17:44:34.935Z,13.30
2023-03-18T17:46:38.013Z,15.18
2023-03-18T17:48:41.078Z,15.63
2023-03-18T17:50:44.866Z,17.08
2023-03-18T17:52:52.586Z,13.00
2023-03-18T17:54:55.619Z,19.83
2023-03-18T17:56:58.233Z,12.35
2023-03-18T17:59:00.810Z,11.82
2023-03-18T18:01:07.046Z,13.80
2023-03-18T18:03:21.609Z,15.98
2023-03-18T18:05:24.676Z,13.88
2023-03-18T18:07:27.247Z,22.83
2023-03-18T18:09:31.189Z,15.88
2023-03-18T18:11:37.807Z,15.20
2023-03-18T18:13:40.429Z,18.45
2023-03-18T18:15:43.427Z,17.10
2023-03-18T18:17:48.452Z,15.52
2023-03-18T18:19:51.069Z,16.38
2023-03-18T18:21:54.865Z,17.67
2023-03-18T18:23:57.476Z,12.38
2023-03-18T18:26:04.573Z,13.85
2023-03-18T18:28:18.354Z,14.43
2023-03-18T18:30:25.108Z,23.30
2023-03-18T18:32:27.685Z,15.20
2023-03-18T18:34:30.238Z,11.10
2023-03-18T18:36:33.030Z,12.38
2023-03-18T18:38:35.899Z,15.85
2023-03-18T18:40:38.480Z,20.73
2023-03-18T18:42:43.509Z,16.27
2023-03-18T18:44:46.931Z,16.90
2023-03-18T18:46:49.692Z,9.27
2023-03-18T18:48:53.803Z,11.55
2023-03-18T18:50:57.150Z,12.48
2023-03-18T18:53:00.462Z,14.18
2023-03-18T18:55:03.737Z,16.55
2023-03-18T18:57:07.350Z,13.40
2023-03-18T18:59:22.983Z,12.15
2023-03-18T19:01:25.835Z,13.48
2023-03-18T19:03:31.374Z,11.60
2023-03-18T19:05:35.732Z,12.77
2023-03-18T19:07:39.563Z,15.88
2023-03-18T19:09:42.570Z,12.43
2023-03-18T19:11:45.240Z,12.18
2023-03-18T19:13:48.132Z,13.07
2023-03-18T19:15:53.819Z,12.07
2023-03-18T19:17:56.441Z,12.10
2023-03-18T19:19:59.000Z,14.52
2023-03-18T19:22:02.820Z,11.05
2023-03-18T19:24:26.247Z,18.20
2023-03-18T19:26:28.898Z,19.75
2023-03-18T19:28:58.371Z,11.63
2023-03-18T19:31:04.413Z,12.70
2023-03-18T19:33:14.999Z,13.68
2023-03-18T19:35:17.875Z,19.83
2023-03-18T19:37:24.846Z,13.63
2023-03-18T19:39:28.104Z,14.50
2023-03-18T19:41:31.292Z,20.75
2023-03-18T19:43:33.907Z,15.65
2023-03-18T19:45:36.860Z,16.10
2023-03-18T19:47:42.130Z,14.07
2023-03-18T19:49:45.063Z,16.50
2023-03-18T19:51:49.722Z,11.98
2023-03-18T19:53:52.432Z,11.30
2023-03-18T19:55:55.173Z,15.65
2023-03-18T19:57:58.276Z,21.17
2023-03-18T20:00:05.867Z,16.77
2023-03-18T20:02:21.046Z,24.42
2023-03-18T20:04:27.533Z,18.40
2023-03-18T20:06:30.120Z,27.27
2023-03-18T20:08:32.740Z,18.65
2023-03-18T20:10:35.509Z,16.05
2023-03-18T20:12:39.692Z,17.50
2023-03-18T20:14:42.347Z,22.48
2023-03-18T20:16:44.931Z,19.02
2023-03-18T20:18:47.474Z,24.60
2023-03-18T20:20:52.411Z,15.25
2023-03-18T20:22:59.404Z,17.17
2023-03-18T20:25:03.194Z,28.05
2023-03-18T20:27:05.898Z,17.23
2023-03-18T20:29:19.522Z,22.08
2023-03-18T20:31:22.141Z,17.00
2023-03-18T20:33:24.778Z,20.27
2023-03-18T20:35:29.467Z,17.45
2023-03-18T20:37:36.040Z,14.60
2023-03-18T20:39:38.682Z,22.77
2023-03-18T20:41:41.238Z,22.42
2023-03-18T20:43:44.058Z,19.52
2023-03-18T20:45:46.735Z,21.38
2023-03-18T20:47:49.859Z,17.20
2023-03-18T20:49:53.917Z,16.15
2023-03-18T20:51:57.801Z,19.75
2023-03-18T20:54:02.230Z,23.70
2023-03-18T20:56:05.239Z,18.08
2023-03-18T20:58:14.444Z,20.83
2023-03-18T21:00:19.504Z,14.35
2023-03-18T21:02:30.072Z,15.32
2023-03-18T21:04:32.695Z,19.65
2023-03-18T21:06:35.849Z,16.00
2023-03-18T21:08:38.444Z,15.02
2023-03-18T21:10:42.442Z,15.05
2023-03-18T21:12:45.581Z,19.35
2023-03-18T21:14:48.834Z,17.42
2023-03-18T21:16:51.833Z,16.90
2023-03-18T21:18:54.406Z,15.13
2023-03-18T21:20:57.392Z,17.48
2023-03-18T21:23:00.124Z,14.88
2023-03-18T21:25:03.234Z,13.75
2023-03-18T21:27:07.699Z,18.63
2023-03-18T21:29:10.304Z,20.88
2023-03-18T21:31:23.967Z,19.05
2023-03-18T21:33:31.178Z,21.60
2023-03-18T21:35:34.473Z,19.33
2023-03-18T21:37:37.232Z,20.05
2023-03-18T21:39:39.773Z,20.77
2023-03-18T21:41:42.989Z,24.10
2023-03-18T21:43:47.671Z,19.63
2023-03-18T21:45:50.519Z,19.15
2023-03-18T21:47:53.397Z,17.85
2023-03-18T21:49:58.020Z,24.60
2023-03-18T21:52:00.608Z,28.25
2023-03-18T21:54:03.257Z,25.95
2023-03-18T21:56:06.483Z,25.58
2023-03-18T21:58:15.692Z,22.00
2023-03-18T22:00:21.560Z,17.75
2023-03-18T22:02:29.810Z,20.30
2023-03-18T22:04:32.395Z,18.17
2023-03-18T22:06:34.942Z,21.48
2023-03-18T22:08:37.487Z,23.85
2023-03-18T22:10:41.029Z,20.20
2023-03-18T22:12:43.733Z,23.52
2023-03-18T22:14:46.299Z,19.10
2023-03-18T22:16:50.300Z,19.90
2023-03-18T22:18:52.889Z,18.85
2023-03-18T22:20:57.001Z,17.23
2023-03-18T22:22:59.564Z,25.15
2023-03-18T22:25:02.189Z,19.17
2023-03-18T22:27:04.936Z,20.38
2023-03-18T22:29:07.492Z,20.20
2023-03-18T22:31:17.912Z,16.08
2023-03-18T22:33:25.805Z,19.30
2023-03-18T22:35:30.298Z,15.10
2023-03-18T22:37:33.055Z,23.45
2023-03-18T22:39:35.623Z,18.48
2023-03-18T22:41:38.188Z,19.23
2023-03-18T22:43:40.865Z,17.92
2023-03-18T22:45:43.457Z,20.08
2023-03-18T22:47:46.120Z,17.42
2023-03-18T22:49:50.527Z,16.08
2023-03-18T22:51:53.114Z,14.98
2023-03-18T22:53:56.081Z,14.75
2023-03-18T22:56:02.324Z,15.75
2023-03-18T22:58:05.490Z,18.55
2023-03-18T23:00:25.854Z,15.18
2023-03-18T23:02:28.876Z,16.00
2023-03-18T23:04:31.815Z,14.40
2023-03-18T23:06:35.819Z,15.05
2023-03-18T23:08:38.404Z,15.85
2023-03-18T23:10:41.848Z,14.15
2023-03-18T23:12:44.726Z,18.67
2023-03-18T23:14:47.506Z,18.88
2023-03-18T23:16:50.057Z,14.63
2023-03-18T23:18:53.130Z,16.30
2023-03-18T23:20:55.794Z,14.95
2023-03-18T23:22:59.678Z,13.40
2023-03-18T23:25:02.495Z,16.20
2023-03-18T23:27:05.475Z,15.35
2023-03-18T23:29:08.972Z,17.98
2023-03-18T23:31:11.822Z,15.77
2023-03-18T23:33:15.057Z,15.77
2023-03-18T23:35:19.519Z,16.83
2023-03-18T23:37:22.564Z,17.10
2023-03-18T23:39:27.177Z,16.08
2023-03-18T23:41:29.754Z,16.00
2023-03-18T23:43:32.359Z,18.67
2023-03-18T23:45:35.237Z,15.73
2023-03-18T23:47:38.438Z,13.05
2023-03-18T23:49:41.296Z,14.00
2023-03-18T23:51:43.858Z,17.20
2023-03-18T23:53:46.585Z,18.65
2023-03-18T23:55:50.710Z,12.95
2023-03-18T23:57:53.350Z,14.38
2023-03-18T23:59:55.995Z,16.88
